createdAt,value
2023-03-07T00:03:29.461Z,98410.42
2023-03-07T00:08:39.063Z,98407.83
2023-03-07T00:13:47.192Z,98412.28
2023-03-07T00:18:56.407Z,98407.77
2023-03-07T00:24:05.160Z,98410.32
2023-03-07T00:29:13.637Z,98408.39
2023-03-07T00:34:22.462Z,98409.02
2023-03-07T00:39:30.992Z,98405.17
2023-03-07T00:44:40.049Z,98402.37
2023-03-07T00:49:48.418Z,98400.23
2023-03-07T00:54:56.524Z,98394.13
2023-03-07T01:00:06.590Z,98390.45
2023-03-07T01:05:15.007Z,98386.27
2023-03-07T01:10:23.457Z,98381.20
2023-03-07T01:15:31.912Z,98376.98
2023-03-07T01:20:42.862Z,98377.94
2023-03-07T01:25:51.202Z,98372.87
2023-03-07T01:31:03.716Z,98373.64
2023-03-07T01:36:20.253Z,98375.96
2023-03-07T01:41:32.513Z,98378.27
2023-03-07T01:46:53.870Z,98379.02
2023-03-07T01:52:09.906Z,98372.89
2023-03-07T01:57:25.439Z,98369.86
2023-03-07T02:02:35.136Z,98370.77
2023-03-07T02:07:48.285Z,98374.29
2023-03-07T02:12:57.624Z,98373.48
2023-03-07T02:18:07.049Z,98370.63
2023-03-07T02:23:25.407Z,98371.90
2023-03-07T02:28:34.269Z,98372.30
2023-03-07T02:33:43.581Z,98367.38
2023-03-07T02:38:55.740Z,98362.45
2023-03-07T02:44:04.901Z,98359.23
2023-03-07T02:49:13.472Z,98361.52
2023-03-07T02:54:21.667Z,98355.40
2023-03-07T02:59:29.023Z,98354.42
2023-03-07T03:04:37.587Z,98348.95
2023-03-07T03:09:45.838Z,98347.79
2023-03-07T03:14:53.920Z,98342.16
2023-03-07T03:20:02.161Z,98343.91
2023-03-07T03:25:13.806Z,98347.89
2023-03-07T03:30:23.311Z,98345.17
2023-03-07T03:35:31.829Z,98342.44
2023-03-07T03:40:41.773Z,98341.61
2023-03-07T03:45:58.322Z,98345.58
2023-03-07T03:51:09.492Z,98349.89
2023-03-07T03:56:20.297Z,98349.05
2023-03-07T04:01:29.767Z,98341.34
2023-03-07T04:06:38.956Z,98341.54
2023-03-07T04:11:47.168Z,98338.98
2023-03-07T04:16:55.769Z,98338.50
2023-03-07T04:22:04.469Z,98338.19
2023-03-07T04:27:13.048Z,98334.42
2023-03-07T04:32:20.850Z,98335.46
2023-03-07T04:37:29.975Z,98328.96
2023-03-07T04:42:42.257Z,98325.89
2023-03-07T04:47:52.618Z,98324.36
2023-03-07T04:52:59.995Z,98326.42
2023-03-07T04:58:13.363Z,98327.98
2023-03-07T05:03:22.535Z,98327.32
2023-03-07T05:08:31.412Z,98325.28
2023-03-07T05:13:39.763Z,98322.38
2023-03-07T05:18:48.577Z,98318.45
2023-03-07T05:23:57.045Z,98312.29
2023-03-07T05:29:04.784Z,98307.66
2023-03-07T05:34:12.457Z,98301.33
2023-03-07T05:39:21.624Z,98294.48
2023-03-07T05:44:31.653Z,98298.95
2023-03-07T05:49:40.968Z,98299.83
2023-03-07T05:54:51.346Z,98298.09
2023-03-07T06:00:00.093Z,98297.40
2023-03-07T06:05:09.787Z,98294.61
2023-03-07T06:10:18.650Z,98291.48
2023-03-07T06:15:27.492Z,98286.61
2023-03-07T06:20:42.191Z,98293.90
2023-03-07T06:25:51.107Z,98289.69
2023-03-07T06:30:59.546Z,98287.52
2023-03-07T06:36:12.659Z,98288.55
2023-03-07T06:41:21.662Z,98293.04
2023-03-07T06:46:31.056Z,98289.77
2023-03-07T06:51:40.287Z,98291.64
2023-03-07T06:56:49.031Z,98286.27
2023-03-07T07:02:00.380Z,98284.67
2023-03-07T07:07:08.995Z,98288.59
2023-03-07T07:12:17.220Z,98287.50
2023-03-07T07:17:26.423Z,98283.64
2023-03-07T07:22:35.349Z,98281.67
2023-03-07T07:27:43.920Z,98275.23
2023-03-07T07:32:52.577Z,98267.53
2023-03-07T07:38:02.817Z,98266.36
2023-03-07T07:43:14.115Z,98255.02
2023-03-07T07:48:27.395Z,98229.31
2023-03-07T07:53:35.690Z,98231.36
2023-03-07T07:58:43.527Z,98228.52
2023-03-07T08:03:52.882Z,98217.05
2023-03-07T08:09:01.814Z,98208.48
2023-03-07T08:14:09.211Z,98202.33
2023-03-07T08:19:17.380Z,98197.00
2023-03-07T08:24:38.541Z,98202.31
2023-03-07T08:29:51.875Z,98202.29
2023-03-07T08:35:00.524Z,98201.84
2023-03-07T08:40:10.942Z,98193.66
2023-03-07T08:45:21.342Z,98189.54
2023-03-07T08:50:29.409Z,98193.52
2023-03-07T08:55:40.347Z,98187.84
2023-03-07T09:00:48.820Z,98184.30
2023-03-07T09:05:57.348Z,98169.95
2023-03-07T09:11:05.951Z,98162.19
2023-03-07T09:16:14.557Z,98151.29
2023-03-07T09:21:21.940Z,98140.80
2023-03-07T09:26:30.774Z,98135.58
2023-03-07T09:31:39.548Z,98135.77
2023-03-07T09:36:48.087Z,98131.65
2023-03-07T09:42:12.000Z,98128.05
2023-03-07T09:47:39.780Z,98117.20
2023-03-07T09:52:48.781Z,98107.10
2023-03-07T09:58:01.568Z,98108.27
2023-03-07T10:03:28.325Z,98095.95
2023-03-07T10:08:36.698Z,98083.81
2023-03-07T10:13:59.328Z,98079.27
2023-03-07T10:19:17.453Z,98075.55
2023-03-07T10:24:43.812Z,98058.35
2023-03-07T10:29:54.215Z,98065.72
2023-03-07T10:35:16.163Z,98058.42
2023-03-07T10:40:28.414Z,98052.81
2023-03-07T10:45:38.267Z,98042.78
2023-03-07T10:50:51.764Z,98026.52
2023-03-07T10:56:14.138Z,98013.51
2023-03-07T11:01:26.033Z,98001.27
2023-03-07T11:06:40.763Z,97991.42
2023-03-07T11:11:54.942Z,97979.63
2023-03-07T11:17:04.743Z,97960.55
2023-03-07T11:22:32.783Z,97956.54
2023-03-07T11:27:50.836Z,97944.83
2023-03-07T11:33:09.215Z,97932.98
2023-03-07T11:38:29.639Z,97925.35
2023-03-07T11:43:50.507Z,97917.05
2023-03-07T11:49:11.945Z,97909.23
2023-03-07T11:54:30.132Z,97898.13
2023-03-07T12:00:18.410Z,97891.04
2023-03-07T12:05:47.108Z,97876.70
2023-03-07T12:11:07.066Z,97869.75
2023-03-07T12:16:27.764Z,97864.98
2023-03-07T12:21:58.577Z,97856.84
2023-03-07T12:27:14.831Z,97845.05
2023-03-07T12:32:26.254Z,97838.39
2023-03-07T12:37:39.952Z,97832.81
2023-03-07T12:42:53.948Z,97827.64
2023-03-07T12:48:09.466Z,97816.73
2023-03-07T12:53:26.169Z,97804.42
2023-03-07T12:58:42.303Z,97797.52
2023-03-07T13:03:57.554Z,97795.19
2023-03-07T13:09:06.538Z,97796.38
2023-03-07T13:14:43.667Z,97789.56
2023-03-07T13:20:01.863Z,97782.19
2023-03-07T13:25:39.517Z,97769.13
2023-03-07T13:31:38.538Z,97755.91
2023-03-07T13:36:46.064Z,97751.05
2023-03-07T13:41:55.233Z,97747.71
2023-03-07T13:47:05.476Z,97742.99
2023-03-07T13:52:37.278Z,97723.67
2023-03-07T13:57:46.630Z,97733.35
2023-03-07T14:02:56.089Z,97726.20
2023-03-07T14:08:07.925Z,97719.96
2023-03-07T14:14:01.693Z,97710.40
2023-03-07T14:19:31.094Z,97701.01
2023-03-07T14:24:59.706Z,97687.91
2023-03-07T14:30:20.227Z,97684.95
2023-03-07T14:35:45.724Z,97674.15
2023-03-07T14:41:13.516Z,97667.69
2023-03-07T14:46:32.600Z,97653.08
2023-03-07T14:51:44.206Z,97642.59
2023-03-07T14:56:55.599Z,97631.91
2023-03-07T15:02:03.986Z,97628.17
2023-03-07T15:07:23.441Z,97618.68
2023-03-07T15:12:33.886Z,97607.98
2023-03-07T15:17:44.508Z,97599.44
2023-03-07T15:22:55.062Z,97596.08
2023-03-07T15:28:06.368Z,97587.19
2023-03-07T15:33:24.306Z,97580.49
2023-03-07T15:38:34.004Z,97572.15
2023-03-07T15:43:41.612Z,97565.49
2023-03-07T15:48:52.489Z,97558.27
2023-03-07T15:54:03.916Z,97552.46
2023-03-07T15:59:24.758Z,97543.52
2023-03-07T16:04:43.773Z,97542.88
2023-03-07T16:09:51.060Z,97543.63
2023-03-07T16:14:59.847Z,97546.44
2023-03-07T16:20:15.690Z,97536.81
2023-03-07T16:25:24.637Z,97535.20
2023-03-07T16:30:37.049Z,97527.47
2023-03-07T16:35:45.711Z,97528.27
2023-03-07T16:40:54.014Z,97525.58
2023-03-07T16:46:02.499Z,97521.86
2023-03-07T16:51:17.613Z,97517.42
2023-03-07T16:56:30.940Z,97509.55
2023-03-07T17:01:39.559Z,97504.59
2023-03-07T17:06:57.707Z,97500.67
2023-03-07T17:12:11.329Z,97502.38
2023-03-07T17:17:24.082Z,97500.12
2023-03-07T17:22:32.858Z,97498.05
2023-03-07T17:27:44.199Z,97497.19
2023-03-07T17:32:53.050Z,97498.33
2023-03-07T17:38:02.068Z,97496.98
2023-03-07T17:43:11.139Z,97492.01
2023-03-07T17:48:19.753Z,97484.98
2023-03-07T17:53:28.148Z,97482.67
2023-03-07T17:58:36.866Z,97471.54
2023-03-07T18:03:46.213Z,97465.34
2023-03-07T18:08:55.102Z,97453.64
2023-03-07T18:14:04.302Z,97437.39
2023-03-07T18:19:25.465Z,97430.78
2023-03-07T18:24:35.217Z,97426.98
2023-03-07T18:29:42.997Z,97420.91
2023-03-07T18:34:52.854Z,97413.00
2023-03-07T18:40:01.666Z,97406.91
2023-03-07T18:45:12.159Z,97388.89
2023-03-07T18:50:21.170Z,97396.65
2023-03-07T18:55:30.066Z,97385.31
2023-03-07T19:00:38.828Z,97377.98
2023-03-07T19:05:52.687Z,97370.18
2023-03-07T19:11:02.892Z,97371.38
2023-03-07T19:16:13.826Z,97364.74
2023-03-07T19:21:24.051Z,97357.60
2023-03-07T19:26:32.317Z,97346.94
2023-03-07T19:31:41.378Z,97340.12
2023-03-07T19:36:49.623Z,97340.34
2023-03-07T19:41:57.722Z,97332.87
2023-03-07T19:47:06.221Z,97327.86
2023-03-07T19:52:14.858Z,97316.20
2023-03-07T19:57:23.671Z,97325.55
2023-03-07T20:02:31.856Z,97325.58
2023-03-07T20:07:40.080Z,97349.56
2023-03-07T20:12:49.210Z,97359.55
2023-03-07T20:17:57.194Z,97388.99
2023-03-07T20:23:05.759Z,97405.63
2023-03-07T20:28:14.198Z,97412.83
2023-03-07T20:33:23.360Z,97408.27
2023-03-07T20:38:30.918Z,97410.67
2023-03-07T20:43:42.227Z,97421.14
2023-03-07T20:48:52.489Z,97428.38
2023-03-07T20:54:02.464Z,97435.59
2023-03-07T20:59:13.556Z,97414.52
2023-03-07T21:04:22.087Z,97414.70
2023-03-07T21:09:30.437Z,97438.48
2023-03-07T21:14:42.027Z,97451.48
2023-03-07T21:19:49.908Z,97448.42
2023-03-07T21:24:58.438Z,97432.56
2023-03-07T21:30:08.795Z,97428.17
2023-03-07T21:35:16.518Z,97432.27
2023-03-07T21:40:24.522Z,97437.40
2023-03-07T21:45:33.331Z,97444.92
2023-03-07T21:50:45.599Z,97448.98
2023-03-07T21:55:54.767Z,97449.07
2023-03-07T22:01:02.917Z,97451.29
2023-03-07T22:06:12.786Z,97458.98
2023-03-07T22:11:21.124Z,97467.20
2023-03-07T22:16:29.514Z,97470.54
2023-03-07T22:21:37.643Z,97469.44
2023-03-07T22:26:46.669Z,97466.34
2023-03-07T22:31:55.201Z,97472.84
2023-03-07T22:37:03.305Z,97476.54
2023-03-07T22:42:11.630Z,97482.14
2023-03-07T22:47:18.989Z,97482.20
2023-03-07T22:52:27.327Z,97482.80
2023-03-07T22:57:36.310Z,97490.46
2023-03-07T23:02:44.477Z,97496.41
2023-03-07T23:07:52.769Z,97501.99
2023-03-07T23:13:01.182Z,97498.98
2023-03-07T23:18:09.705Z,97500.52
2023-03-07T23:23:17.941Z,97500.71
2023-03-07T23:28:26.910Z,97498.13
2023-03-07T23:33:35.792Z,97499.52
2023-03-07T23:38:43.484Z,97500.60
2023-03-07T23:43:54.668Z,97505.84
2023-03-07T23:49:02.271Z,97508.61
2023-03-07T23:54:10.633Z,97513.83
2023-03-07T23:59:19.228Z,97524.94
